Time;durP1;ratioP1;P1;durP2;ratioP2;P2;SDS_P1;SDS_P2;PMS_P1;PMS_P2;Temp;Humidity;BMP_temperature;BMP_pressure;BME280_temperature;BME280_humidity;BME280_pressure;Samples;Min_cycle;Max_cycle;Signal;HPM_P1;HPM_P2
2021/06/23 00:00:32;;;;;;;7.55;5.93;;;;;;;;;;4992994;28;20049;-84
2021/06/23 00:02:59;;;;;;;6.90;6.20;;;;;;;;;;4991426;28;20057;-84
2021/06/23 00:05:26;;;;;;;8.82;6.60;;;;;;;;;;4988021;28;20498;-85
2021/06/23 00:07:52;;;;;;;7.18;6.47;;;;;;;;;;4994897;28;20494;-84
2021/06/23 00:10:20;;;;;;;5.78;5.05;;;;;;;;;;4991887;28;20039;-84
2021/06/23 00:12:49;;;;;;;7.50;6.00;;;;;;;;;;4991930;28;20412;-85
2021/06/23 00:15:18;;;;;;;7.28;6.50;;;;;;;;;;4991745;28;20502;-84
2021/06/23 00:17:47;;;;;;;7.70;6.95;;;;;;;;;;4990122;28;20068;-85
2021/06/23 00:20:14;;;;;;;7.95;6.80;;;;;;;;;;4990220;28;20499;-85
2021/06/23 00:22:41;;;;;;;7.25;5.57;;;;;;;;;;4992774;28;20479;-85
2021/06/23 00:25:09;;;;;;;7.07;5.22;;;;;;;;;;4992469;28;20046;-87
2021/06/23 00:27:35;;;;;;;8.10;5.43;;;;;;;;;;4996518;28;20053;-84
2021/06/23 00:30:02;;;;;;;7.05;6.10;;;;;;;;;;4994168;28;20050;-84
2021/06/23 00:32:30;;;;;;;7.82;6.35;;;;;;;;;;4993820;28;20066;-85
2021/06/23 00:34:58;;;;;;;6.30;5.70;;;;;;;;;;4990902;28;20050;-86
2021/06/23 00:37:24;;;;;;;5.03;4.53;;;;;;;;;;4991186;28;20059;-85
2021/06/23 00:39:51;;;;;;;5.38;4.88;;;;;;;;;;4996555;28;20682;-85
2021/06/23 00:42:17;;;;;;;6.25;4.70;;;;;;;;;;4973149;28;20046;-86
2021/06/23 00:44:45;;;;;;;7.63;4.95;;;;;;;;;;4993754;28;20435;-87
2021/06/23 00:47:12;;;;;;;5.55;4.95;;;;;;;;;;4978449;28;20049;-85
2021/06/23 00:49:38;;;;;;;7.47;5.50;;;;;;;;;;4994415;28;20062;-86
2021/06/23 00:52:08;;;;;;;5.07;4.55;;;;;;;;;;4991391;28;20046;-87
2021/06/23 00:54:34;;;;;;;10.48;6.03;;;;;;;;;;4991601;28;20054;-85
2021/06/23 00:57:05;;;;;;;7.97;6.75;;;;;;;;;;4982802;28;20415;-87
2021/06/23 00:59:31;;;;;;;7.88;6.50;;;;;;;;;;4995884;28;20050;-86
2021/06/23 01:01:59;;;;;;;8.60;6.35;;;;;;;;;;5001792;28;20046;-85
2021/06/23 01:04:26;;;;;;;7.55;6.53;;;;;;;;;;4992624;28;20039;-85
2021/06/23 01:06:53;;;;;;;6.95;5.95;;;;;;;;;;4998211;28;20042;-86
2021/06/23 01:09:22;;;;;;;11.27;7.13;;;;;;;;;;4987440;28;20057;-86
2021/06/23 01:12:04;;;;;;;7.40;6.57;;;;;;;;;;4998029;28;20046;-85
2021/06/23 01:14:33;;;;;;;11.07;7.55;;;;;;;;;;4992622;28;20043;-86
2021/06/23 01:17:01;;;;;;;7.07;5.18;;;;;;;;;;4991710;28;20054;-85
2021/06/23 01:19:27;;;;;;;7.93;6.90;;;;;;;;;;4993693;28;20046;-87
2021/06/23 01:21:55;;;;;;;8.20;6.13;;;;;;;;;;4975148;28;20046;-85
2021/06/23 01:24:24;;;;;;;8.93;7.03;;;;;;;;;;4994200;28;20051;-86
2021/06/23 01:26:51;;;;;;;7.50;6.63;;;;;;;;;;4995554;28;20061;-85
2021/06/23 01:29:18;;;;;;;10.18;8.65;;;;;;;;;;4994557;28;20039;-85
2021/06/23 01:31:44;;;;;;;8.52;7.72;;;;;;;;;;4992539;28;20050;-87
2021/06/23 01:34:12;;;;;;;8.25;7.07;;;;;;;;;;4995331;28;20475;-85
2021/06/23 01:36:38;;;;;;;9.38;8.35;;;;;;;;;;4996083;28;20141;-85
2021/06/23 01:39:06;;;;;;;10.05;7.50;;;;;;;;;;4989083;28;20495;-84
2021/06/23 01:41:33;;;;;;;7.85;7.05;;;;;;;;;;5001647;28;20057;-85
2021/06/23 01:44:00;;;;;;;10.32;8.93;;;;;;;;;;4991634;28;20042;-86
2021/06/23 01:46:26;;;;;;;9.32;6.80;;;;;;;;;;4991789;28;20392;-85
2021/06/23 01:48:53;;;;;;;11.02;9.90;;;;;;;;;;4998515;28;20512;-85
2021/06/23 01:51:19;;;;;;;10.63;9.52;;;;;;;;;;4999784;28;20115;-85
2021/06/23 01:53:46;;;;;;;11.10;9.95;;;;;;;;;;4996261;28;20050;-85
2021/06/23 01:56:14;;;;;;;10.75;8.13;;;;;;;;;;4995931;28;20131;-85
2021/06/23 01:58:43;;;;;;;8.88;7.75;;;;;;;;;;4997356;28;20402;-85
2021/06/23 02:01:17;;;;;;;12.23;10.02;;;;;;;;;;4997316;28;20511;-85
2021/06/23 02:04:12;;;;;;;9.30;7.38;;;;;;;;;;4991791;28;20079;-85
2021/06/23 02:06:52;;;;;;;9.38;8.43;;;;;;;;;;4993253;28;20058;-85
2021/06/23 02:09:31;;;;;;;8.13;7.35;;;;;;;;;;4994852;28;20043;-85
2021/06/23 02:12:07;;;;;;;9.30;7.90;;;;;;;;;;4997127;28;20038;-85
2021/06/23 02:14:40;;;;;;;9.70;7.82;;;;;;;;;;4995403;28;20053;-85
2021/06/23 02:17:09;;;;;;;12.75;9.75;;;;;;;;;;4994608;28;20046;-86
2021/06/23 02:19:40;;;;;;;9.68;8.77;;;;;;;;;;4993829;28;20042;-85
2021/06/23 02:22:10;;;;;;;12.40;11.10;;;;;;;;;;4998882;28;20054;-84
2021/06/23 02:24:37;;;;;;;11.68;10.48;;;;;;;;;;4992867;28;20134;-87
2021/06/23 02:27:05;;;;;;;12.20;9.93;;;;;;;;;;4991677;28;20072;-84
2021/06/23 02:29:32;;;;;;;9.25;8.30;;;;;;;;;;4995176;28;20053;-86
2021/06/23 02:32:00;;;;;;;12.13;10.15;;;;;;;;;;4992603;28;20042;-85
2021/06/23 02:34:27;;;;;;;12.32;10.93;;;;;;;;;;4997256;28;20046;-85
2021/06/23 02:36:53;;;;;;;9.70;8.57;;;;;;;;;;4996609;28;20053;-84
2021/06/23 02:39:20;;;;;;;13.73;10.70;;;;;;;;;;4995691;28;20186;-85
2021/06/23 02:41:46;;;;;;;9.05;8.23;;;;;;;;;;5000167;28;20053;-85
2021/06/23 02:44:14;;;;;;;10.45;9.43;;;;;;;;;;4997244;28;20057;-85
2021/06/23 02:46:42;;;;;;;9.73;8.40;;;;;;;;;;4994405;28;20042;-86
2021/06/23 02:49:08;;;;;;;12.30;10.90;;;;;;;;;;4991494;28;20411;-85
2021/06/23 02:51:39;;;;;;;12.20;10.90;;;;;;;;;;4993555;28;20058;-85
2021/06/23 02:54:06;;;;;;;9.93;8.85;;;;;;;;;;4997048;28;20038;-86
2021/06/23 02:56:33;;;;;;;12.80;11.57;;;;;;;;;;4996440;28;20046;-86
2021/06/23 02:59:01;;;;;;;13.77;12.32;;;;;;;;;;4991672;28;20042;-85
2021/06/23 03:01:29;;;;;;;10.57;9.50;;;;;;;;;;4997580;28;20325;-85
2021/06/23 03:03:56;;;;;;;10.43;9.00;;;;;;;;;;4994882;28;20050;-85
2021/06/23 03:06:23;;;;;;;10.25;8.00;;;;;;;;;;4994289;28;20502;-85
2021/06/23 03:08:49;;;;;;;9.85;8.65;;;;;;;;;;4973013;28;20038;-85
2021/06/23 03:11:16;;;;;;;11.23;10.05;;;;;;;;;;4973249;28;20053;-86
2021/06/23 03:13:43;;;;;;;9.70;8.70;;;;;;;;;;4997238;28;20052;-85
2021/06/23 03:16:09;;;;;;;12.73;11.43;;;;;;;;;;4987210;28;20050;-85
2021/06/23 03:18:37;;;;;;;10.63;8.73;;;;;;;;;;4992695;28;20051;-85
2021/06/23 03:21:06;;;;;;;9.98;8.57;;;;;;;;;;4992122;28;20400;-85
2021/06/23 03:23:33;;;;;;;10.63;9.52;;;;;;;;;;4990886;28;20133;-86
2021/06/23 03:26:00;;;;;;;11.10;10.00;;;;;;;;;;4986569;28;20423;-86
2021/06/23 03:28:26;;;;;;;12.10;8.50;;;;;;;;;;4992553;28;20054;-86
2021/06/23 03:30:54;;;;;;;11.40;10.02;;;;;;;;;;4996018;28;20046;-85
2021/06/23 03:33:21;;;;;;;11.50;10.10;;;;;;;;;;4995362;28;20047;-86
2021/06/23 03:35:49;;;;;;;14.93;11.32;;;;;;;;;;4997404;28;20046;-86
2021/06/23 03:38:15;;;;;;;14.90;11.13;;;;;;;;;;4992141;28;20145;-85
2021/06/23 03:40:42;;;;;;;11.80;10.60;;;;;;;;;;4994579;28;20053;-86
2021/06/23 03:43:09;;;;;;;11.70;10.02;;;;;;;;;;4994607;28;20056;-85
2021/06/23 03:45:35;;;;;;;11.10;9.98;;;;;;;;;;4991839;28;20058;-86
2021/06/23 03:48:02;;;;;;;11.68;9.57;;;;;;;;;;4990438;28;20053;-85
2021/06/23 03:50:29;;;;;;;10.40;9.30;;;;;;;;;;4991618;28;20052;-87
2021/06/23 03:52:57;;;;;;;11.23;9.80;;;;;;;;;;4995128;28;20050;-85
2021/06/23 03:55:26;;;;;;;8.82;7.93;;;;;;;;;;4991193;28;21020;-86
2021/06/23 03:57:54;;;;;;;13.23;8.73;;;;;;;;;;4977866;28;20039;-86
2021/06/23 04:00:23;;;;;;;9.13;7.63;;;;;;;;;;4990191;28;20051;-85
2021/06/23 04:02:49;;;;;;;14.82;7.53;;;;;;;;;;4988375;28;20047;-86
2021/06/23 04:05:16;;;;;;;10.65;7.15;;;;;;;;;;4971980;28;20089;-85
2021/06/23 04:07:43;;;;;;;8.63;6.72;;;;;;;;;;4990614;28;20058;-85
2021/06/23 04:10:11;;;;;;;8.32;6.25;;;;;;;;;;4976106;28;20070;-86
2021/06/23 04:12:38;;;;;;;11.82;7.38;;;;;;;;;;4993547;28;20050;-85
2021/06/23 04:15:06;;;;;;;9.73;7.22;;;;;;;;;;4994982;28;20042;-86
2021/06/23 04:17:33;;;;;;;10.15;7.20;;;;;;;;;;4991989;28;20061;-85
2021/06/23 04:20:00;;;;;;;11.98;8.90;;;;;;;;;;4973707;28;20054;-85
2021/06/23 04:22:27;;;;;;;9.90;8.25;;;;;;;;;;4978298;28;20046;-85
2021/06/23 04:24:54;;;;;;;11.02;8.07;;;;;;;;;;4989696;28;20487;-85
2021/06/23 04:27:22;;;;;;;8.60;6.80;;;;;;;;;;4977339;28;20061;-85
2021/06/23 04:29:49;;;;;;;8.77;6.53;;;;;;;;;;4990504;28;20042;-85
2021/06/23 04:32:16;;;;;;;8.05;6.55;;;;;;;;;;4993971;28;20042;-86
2021/06/23 04:34:42;;;;;;;9.43;6.55;;;;;;;;;;4981326;28;20502;-86
2021/06/23 04:37:09;;;;;;;8.30;6.45;;;;;;;;;;4995899;28;20049;-83
2021/06/23 04:39:36;;;;;;;11.93;6.45;;;;;;;;;;4995181;28;20053;-83
2021/06/23 04:42:03;;;;;;;7.65;5.97;;;;;;;;;;4988452;28;20038;-85
2021/06/23 04:44:31;;;;;;;6.28;5.65;;;;;;;;;;4993060;28;20523;-83
2021/06/23 04:47:00;;;;;;;8.68;6.47;;;;;;;;;;5000994;28;20066;-87
2021/06/23 04:49:29;;;;;;;8.45;6.85;;;;;;;;;;5002292;28;20046;-85
2021/06/23 04:51:56;;;;;;;9.30;7.20;;;;;;;;;;4999575;28;20054;-84
2021/06/23 04:54:22;;;;;;;12.10;7.78;;;;;;;;;;4999119;28;20050;-84
2021/06/23 04:56:49;;;;;;;8.60;7.25;;;;;;;;;;4995246;28;20042;-84
2021/06/23 04:59:15;;;;;;;8.75;7.15;;;;;;;;;;4994771;28;20097;-83
2021/06/23 05:01:44;;;;;;;9.40;7.25;;;;;;;;;;4998388;28;20048;-84
2021/06/23 05:04:10;;;;;;;9.43;6.55;;;;;;;;;;4997250;28;20050;-84
2021/06/23 05:06:36;;;;;;;10.57;6.25;;;;;;;;;;5002829;28;20056;-85
2021/06/23 05:09:06;;;;;;;9.32;6.72;;;;;;;;;;4999732;28;20053;-84
2021/06/23 05:11:32;;;;;;;9.02;7.00;;;;;;;;;;4997412;28;20047;-84
2021/06/23 05:13:59;;;;;;;11.38;6.65;;;;;;;;;;4977736;28;20042;-85
2021/06/23 05:16:27;;;;;;;8.98;6.40;;;;;;;;;;4993575;28;20046;-84
2021/06/23 05:18:55;;;;;;;9.15;7.70;;;;;;;;;;4996878;28;20073;-85
2021/06/23 05:21:22;;;;;;;8.95;6.97;;;;;;;;;;4990078;28;20092;-84
2021/06/23 05:23:49;;;;;;;7.90;6.20;;;;;;;;;;4998190;28;20056;-85
2021/06/23 05:26:15;;;;;;;10.60;7.95;;;;;;;;;;4996977;28;20051;-86
2021/06/23 05:28:42;;;;;;;9.40;7.03;;;;;;;;;;4989383;28;20050;-85
2021/06/23 05:31:09;;;;;;;6.10;5.50;;;;;;;;;;4999970;28;20046;-85
2021/06/23 05:33:35;;;;;;;7.10;5.78;;;;;;;;;;5001732;28;20047;-86
2021/06/23 05:36:03;;;;;;;7.82;5.57;;;;;;;;;;5000533;28;20153;-84
2021/06/23 05:38:31;;;;;;;8.27;5.95;;;;;;;;;;4997710;28;20078;-86
2021/06/23 05:40:58;;;;;;;8.55;5.78;;;;;;;;;;4968965;28;20046;-85
2021/06/23 05:43:25;;;;;;;9.77;4.57;;;;;;;;;;4980488;28;20047;-84
2021/06/23 05:45:51;;;;;;;5.30;4.18;;;;;;;;;;4963568;28;20062;-86
2021/06/23 05:48:18;;;;;;;7.07;3.92;;;;;;;;;;4979126;28;20054;-85
2021/06/23 05:50:45;;;;;;;4.82;3.70;;;;;;;;;;4990206;28;20050;-85
2021/06/23 05:53:13;;;;;;;5.10;3.70;;;;;;;;;;4981563;28;20061;-84
2021/06/23 05:55:40;;;;;;;5.95;3.40;;;;;;;;;;4999096;28;20406;-84
2021/06/23 05:58:08;;;;;;;7.97;3.65;;;;;;;;;;4998003;28;20081;-85
2021/06/23 06:00:35;;;;;;;3.85;3.30;;;;;;;;;;4983912;28;20420;-85
2021/06/23 06:03:02;;;;;;;5.10;3.47;;;;;;;;;;4966834;28;20054;-85
2021/06/23 06:05:29;;;;;;;4.53;3.65;;;;;;;;;;4984644;28;20065;-84
2021/06/23 06:07:55;;;;;;;4.30;2.72;;;;;;;;;;4986154;28;20046;-85
2021/06/23 06:10:23;;;;;;;3.70;2.72;;;;;;;;;;4986279;28;20054;-85
2021/06/23 06:12:50;;;;;;;6.63;3.30;;;;;;;;;;5004632;28;20052;-85
2021/06/23 06:15:17;;;;;;;5.65;2.58;;;;;;;;;;4989907;28;20049;-86
2021/06/23 06:17:43;;;;;;;3.78;2.55;;;;;;;;;;5008576;28;20483;-84
2021/06/23 06:20:12;;;;;;;5.47;2.85;;;;;;;;;;5007410;28;20110;-86
2021/06/23 06:22:39;;;;;;;4.88;2.95;;;;;;;;;;5007790;28;20578;-85
2021/06/23 06:25:06;;;;;;;4.88;2.40;;;;;;;;;;5001492;28;20057;-85
2021/06/23 06:27:35;;;;;;;6.88;2.90;;;;;;;;;;4983302;28;20054;-85
2021/06/23 06:30:01;;;;;;;4.18;2.53;;;;;;;;;;4999408;28;20710;-85
2021/06/23 06:32:28;;;;;;;7.70;3.00;;;;;;;;;;4977749;28;20046;-84
2021/06/23 06:34:55;;;;;;;4.28;2.90;;;;;;;;;;4991424;28;20046;-86
2021/06/23 06:37:21;;;;;;;3.58;2.80;;;;;;;;;;4998947;28;20042;-85
2021/06/23 06:39:48;;;;;;;4.40;3.10;;;;;;;;;;4972040;28;20077;-85
2021/06/23 06:42:15;;;;;;;5.95;2.92;;;;;;;;;;4994447;28;20046;-85
2021/06/23 06:44:43;;;;;;;10.27;3.88;;;;;;;;;;4999690;28;20054;-86
2021/06/23 06:47:10;;;;;;;6.13;2.95;;;;;;;;;;5000431;28;20050;-84
2021/06/23 06:49:36;;;;;;;5.78;3.28;;;;;;;;;;5000359;28;20503;-85
2021/06/23 06:52:04;;;;;;;4.47;2.92;;;;;;;;;;4994086;28;20051;-86
2021/06/23 06:54:31;;;;;;;5.47;2.95;;;;;;;;;;4996333;28;20573;-85
2021/06/23 06:56:57;;;;;;;4.10;2.88;;;;;;;;;;4997138;28;20534;-85
2021/06/23 06:59:24;;;;;;;5.93;3.10;;;;;;;;;;5000465;28;20034;-85
2021/06/23 07:01:52;;;;;;;3.90;3.25;;;;;;;;;;4991061;28;20465;-89
2021/06/23 07:04:19;;;;;;;3.83;2.90;;;;;;;;;;4988262;28;20133;-87
2021/06/23 07:06:47;;;;;;;4.30;3.63;;;;;;;;;;4990651;28;20057;-85
2021/06/23 07:09:13;;;;;;;5.15;3.42;;;;;;;;;;4993140;28;20042;-85
2021/06/23 07:11:40;;;;;;;5.55;3.55;;;;;;;;;;4995439;28;20057;-85
2021/06/23 07:14:07;;;;;;;4.25;3.10;;;;;;;;;;4978054;28;20410;-84
2021/06/23 07:16:33;;;;;;;5.80;3.38;;;;;;;;;;4975989;28;20053;-85
2021/06/23 07:19:01;;;;;;;5.15;2.83;;;;;;;;;;4993281;28;20049;-84
2021/06/23 07:21:28;;;;;;;3.85;2.70;;;;;;;;;;4978980;28;20054;-84
2021/06/23 07:23:57;;;;;;;4.50;3.03;;;;;;;;;;4995604;28;20046;-84
2021/06/23 07:26:24;;;;;;;6.20;3.70;;;;;;;;;;4992562;28;20046;-85
2021/06/23 07:28:52;;;;;;;5.35;3.05;;;;;;;;;;4978645;28;20054;-85
2021/06/23 07:31:24;;;;;;;3.67;3.10;;;;;;;;;;4997581;28;20046;-85
2021/06/23 07:33:54;;;;;;;3.85;3.15;;;;;;;;;;4994972;28;20133;-84
2021/06/23 07:36:35;;;;;;;3.90;2.90;;;;;;;;;;4999191;28;20155;-84
2021/06/23 07:39:03;;;;;;;4.20;3.28;;;;;;;;;;4995476;28;20057;-84
2021/06/23 07:41:30;;;;;;;3.47;2.97;;;;;;;;;;4999876;28;20050;-85
2021/06/23 07:43:57;;;;;;;4.78;3.92;;;;;;;;;;4999760;28;20057;-85
2021/06/23 07:46:24;;;;;;;6.25;4.10;;;;;;;;;;5001307;28;20435;-85
2021/06/23 07:48:52;;;;;;;4.88;3.35;;;;;;;;;;5002292;28;20106;-85
2021/06/23 07:51:21;;;;;;;11.82;10.05;;;;;;;;;;4986926;28;20050;-85
2021/06/23 07:54:07;;;;;;;6.70;4.97;;;;;;;;;;5004671;28;20120;-86
2021/06/23 07:56:40;;;;;;;5.30;3.45;;;;;;;;;;5005088;28;20050;-85
2021/06/23 08:02:40;;;;;;;3.97;2.72;;;;;;;;;;5000485;28;20093;-86
2021/06/23 08:10:28;;;;;;;6.07;4.13;;;;;;;;;;5001935;28;20049;-83
2021/06/23 08:12:56;;;;;;;4.40;3.67;;;;;;;;;;5001595;28;20047;-84
2021/06/23 08:15:23;;;;;;;4.50;3.30;;;;;;;;;;5005317;28;20065;-85
2021/06/23 08:17:49;;;;;;;4.50;3.15;;;;;;;;;;5007162;28;20069;-86
2021/06/23 08:20:16;;;;;;;5.85;3.67;;;;;;;;;;5004395;28;20050;-84
2021/06/23 08:22:43;;;;;;;3.88;3.03;;;;;;;;;;5000357;28;20054;-83
2021/06/23 08:25:10;;;;;;;6.55;3.10;;;;;;;;;;4997033;28;20133;-82
2021/06/23 08:27:38;;;;;;;4.60;3.40;;;;;;;;;;4996806;28;20507;-84
2021/06/23 08:30:06;;;;;;;5.43;3.50;;;;;;;;;;4990003;28;20043;-84
2021/06/23 08:32:32;;;;;;;5.70;3.58;;;;;;;;;;4993865;28;20047;-83
2021/06/23 08:34:59;;;;;;;5.32;4.32;;;;;;;;;;4996992;28;20047;-85
2021/06/23 08:37:26;;;;;;;5.97;5.25;;;;;;;;;;4996395;28;20051;-85
2021/06/23 08:39:53;;;;;;;5.45;3.70;;;;;;;;;;4996043;28;20058;-82
2021/06/23 08:42:21;;;;;;;4.45;3.88;;;;;;;;;;4997113;28;20100;-83
2021/06/23 08:44:49;;;;;;;4.50;3.13;;;;;;;;;;4994843;28;20490;-84
2021/06/23 08:47:16;;;;;;;5.43;3.47;;;;;;;;;;4977308;28;20054;-84
2021/06/23 08:49:44;;;;;;;5.68;3.35;;;;;;;;;;4975736;28;20046;-83
2021/06/23 08:52:11;;;;;;;4.65;3.17;;;;;;;;;;4977940;28;20051;-83
2021/06/23 08:54:37;;;;;;;7.10;3.50;;;;;;;;;;5003344;28;20057;-82
2021/06/23 08:57:06;;;;;;;4.45;3.00;;;;;;;;;;4996788;28;20046;-81
2021/06/23 08:59:32;;;;;;;5.95;3.22;;;;;;;;;;5000001;28;20073;-82
2021/06/23 09:02:00;;;;;;;9.40;8.65;;;;;;;;;;4996034;28;20048;-82
2021/06/23 09:04:27;;;;;;;5.10;4.18;;;;;;;;;;4995326;28;20060;-82
2021/06/23 09:06:55;;;;;;;4.68;3.15;;;;;;;;;;4995505;28;20517;-81
2021/06/23 09:09:24;;;;;;;4.95;3.17;;;;;;;;;;4996140;28;20133;-82
2021/06/23 09:11:52;;;;;;;3.90;3.22;;;;;;;;;;4995865;28;20082;-82
2021/06/23 09:14:20;;;;;;;5.47;2.92;;;;;;;;;;4979959;28;20061;-82
2021/06/23 09:17:13;;;;;;;5.22;2.70;;;;;;;;;;4984196;28;20046;-82
2021/06/23 09:19:42;;;;;;;3.85;2.90;;;;;;;;;;4982898;28;20046;-85
2021/06/23 09:22:47;;;;;;;5.28;3.08;;;;;;;;;;4992206;28;20411;-82
2021/06/23 09:25:24;;;;;;;4.07;2.60;;;;;;;;;;4981274;28;20070;-81
2021/06/23 09:27:52;;;;;;;3.72;2.65;;;;;;;;;;4979377;28;20047;-82
2021/06/23 09:30:24;;;;;;;5.13;2.80;;;;;;;;;;4985135;28;20047;-82
2021/06/23 09:33:11;;;;;;;3.60;2.55;;;;;;;;;;4985331;28;20043;-83
2021/06/23 09:35:38;;;;;;;6.00;3.17;;;;;;;;;;4983073;28;20133;-83
2021/06/23 09:38:05;;;;;;;3.50;2.78;;;;;;;;;;4994712;28;20061;-84
2021/06/23 09:40:32;;;;;;;3.28;2.58;;;;;;;;;;4994249;28;20043;-83
2021/06/23 09:43:01;;;;;;;5.38;2.47;;;;;;;;;;4992151;28;20051;-83
2021/06/23 09:45:29;;;;;;;4.47;2.80;;;;;;;;;;4983929;28;20074;-82
2021/06/23 09:47:58;;;;;;;4.00;2.40;;;;;;;;;;4980735;28;20055;-82
2021/06/23 09:50:29;;;;;;;2.50;1.92;;;;;;;;;;4979042;28;20514;-89
2021/06/23 09:53:01;;;;;;;4.28;2.72;;;;;;;;;;4986334;28;20042;-82
2021/06/23 09:55:41;;;;;;;4.65;2.35;;;;;;;;;;4994277;28;20046;-84
2021/06/23 09:58:17;;;;;;;3.22;2.30;;;;;;;;;;4997792;28;20054;-81
2021/06/23 10:01:09;;;;;;;2.95;2.25;;;;;;;;;;4997455;28;20080;-83
2021/06/23 10:04:04;;;;;;;3.25;2.47;;;;;;;;;;4978351;28;20050;-81
2021/06/23 10:07:01;;;;;;;3.22;2.33;;;;;;;;;;4978808;28;20133;-82
2021/06/23 10:09:36;;;;;;;3.60;2.00;;;;;;;;;;4978537;28;20059;-82
2021/06/23 10:12:12;;;;;;;3.38;2.22;;;;;;;;;;4987563;28;20046;-88
2021/06/23 10:14:41;;;;;;;3.60;2.08;;;;;;;;;;4997389;28;20050;-81
2021/06/23 10:17:09;;;;;;;3.75;2.38;;;;;;;;;;4998828;28;20054;-81
2021/06/23 10:19:36;;;;;;;4.75;2.30;;;;;;;;;;5000239;28;20046;-82
2021/06/23 10:22:06;;;;;;;5.05;2.33;;;;;;;;;;4996765;28;20093;-81
2021/06/23 10:24:34;;;;;;;3.47;2.70;;;;;;;;;;4999012;28;20050;-83
2021/06/23 10:27:06;;;;;;;5.65;2.42;;;;;;;;;;4999568;28;20483;-84
2021/06/23 10:29:35;;;;;;;3.58;2.13;;;;;;;;;;5001499;28;20062;-83
2021/06/23 10:32:03;;;;;;;4.05;2.42;;;;;;;;;;4999393;28;20133;-83
2021/06/23 10:34:30;;;;;;;3.35;2.13;;;;;;;;;;5000617;28;20056;-83
2021/06/23 10:36:57;;;;;;;3.75;2.08;;;;;;;;;;5000021;28;20046;-83
2021/06/23 10:39:29;;;;;;;2.60;1.77;;;;;;;;;;5002069;28;20049;-83
2021/06/23 10:41:59;;;;;;;3.17;2.35;;;;;;;;;;4998500;28;20479;-82
2021/06/23 10:44:26;;;;;;;4.15;2.40;;;;;;;;;;4995951;28;20053;-82
2021/06/23 10:46:56;;;;;;;2.35;1.95;;;;;;;;;;4978782;28;20515;-84
2021/06/23 10:49:43;;;;;;;3.00;2.22;;;;;;;;;;4980572;28;20050;-84
2021/06/23 10:52:35;;;;;;;4.90;2.30;;;;;;;;;;4978856;28;20047;-84
2021/06/23 10:55:04;;;;;;;2.65;2.22;;;;;;;;;;4980467;28;20245;-83
2021/06/23 10:57:32;;;;;;;4.78;1.83;;;;;;;;;;4980290;28;20109;-82
2021/06/23 11:00:00;;;;;;;4.43;2.55;;;;;;;;;;4985506;28;20065;-82
2021/06/23 11:02:34;;;;;;;3.35;2.45;;;;;;;;;;5000047;28;20046;-82
2021/06/23 11:05:12;;;;;;;3.22;2.65;;;;;;;;;;4998172;28;20283;-82
2021/06/23 11:07:44;;;;;;;3.63;2.08;;;;;;;;;;4997496;28;20491;-83
2021/06/23 11:10:40;;;;;;;3.03;2.13;;;;;;;;;;4991163;28;20039;-84
2021/06/23 11:13:08;;;;;;;3.00;2.20;;;;;;;;;;4982492;28;20464;-84
2021/06/23 11:15:37;;;;;;;3.47;2.40;;;;;;;;;;4987176;28;20054;-82
2021/06/23 11:18:19;;;;;;;3.92;2.63;;;;;;;;;;4985338;28;20052;-81
2021/06/23 11:20:46;;;;;;;4.18;2.20;;;;;;;;;;4983596;28;20102;-81
2021/06/23 11:23:45;;;;;;;3.17;2.47;;;;;;;;;;4990326;28;20047;-80
2021/06/23 11:26:48;;;;;;;4.25;2.30;;;;;;;;;;4980398;28;20051;-81
2021/06/23 11:29:38;;;;;;;4.47;3.00;;;;;;;;;;4988999;28;20046;-83
2021/06/23 11:32:06;;;;;;;4.18;2.70;;;;;;;;;;4995239;28;20067;-82
2021/06/23 11:34:54;;;;;;;4.03;2.60;;;;;;;;;;4996919;28;20085;-82
2021/06/23 11:37:23;;;;;;;3.33;2.25;;;;;;;;;;4998045;28;20102;-81
2021/06/23 11:39:50;;;;;;;4.32;2.40;;;;;;;;;;4997815;28;20797;-81
2021/06/23 11:42:19;;;;;;;3.45;2.40;;;;;;;;;;4995618;28;20085;-82
2021/06/23 11:44:46;;;;;;;3.65;2.78;;;;;;;;;;4978066;28;20150;-80
2021/06/23 11:47:12;;;;;;;4.65;2.70;;;;;;;;;;4981124;28;20492;-82
2021/06/23 11:49:40;;;;;;;4.72;2.67;;;;;;;;;;4991751;28;20077;-81
2021/06/23 11:52:08;;;;;;;3.70;2.90;;;;;;;;;;4986405;28;20059;-82
2021/06/23 11:54:34;;;;;;;4.57;2.92;;;;;;;;;;4975863;28;20054;-82
2021/06/23 11:57:01;;;;;;;3.58;2.78;;;;;;;;;;4976608;28;20049;-83
2021/06/23 11:59:29;;;;;;;4.25;2.70;;;;;;;;;;4977675;28;20134;-82
2021/06/23 12:01:56;;;;;;;3.28;2.70;;;;;;;;;;4987199;28;20518;-82
2021/06/23 12:04:23;;;;;;;5.70;3.15;;;;;;;;;;4993506;28;20046;-84
2021/06/23 12:06:50;;;;;;;5.10;3.38;;;;;;;;;;4994204;28;20051;-83
2021/06/23 12:09:16;;;;;;;3.78;2.90;;;;;;;;;;4991395;28;20412;-82
2021/06/23 12:11:44;;;;;;;7.20;2.75;;;;;;;;;;4983429;28;20051;-83
2021/06/23 12:14:10;;;;;;;4.20;3.00;;;;;;;;;;4992291;28;20050;-82
2021/06/23 12:16:38;;;;;;;3.65;2.85;;;;;;;;;;4996411;28;20042;-82
2021/06/23 12:19:05;;;;;;;4.50;2.95;;;;;;;;;;4995943;28;20050;-82
2021/06/23 12:21:32;;;;;;;6.55;3.58;;;;;;;;;;4996277;28;20053;-84
2021/06/23 12:23:59;;;;;;;4.55;2.60;;;;;;;;;;4999472;28;20054;-84
2021/06/23 12:26:26;;;;;;;3.53;2.90;;;;;;;;;;4997720;28;20059;-84
2021/06/23 12:28:52;;;;;;;3.65;2.72;;;;;;;;;;4999133;28;20056;-82
2021/06/23 12:31:19;;;;;;;5.03;3.42;;;;;;;;;;4996967;28;20110;-85
2021/06/23 12:33:48;;;;;;;5.50;3.63;;;;;;;;;;4982268;28;20047;-85
2021/06/23 12:36:15;;;;;;;4.70;3.22;;;;;;;;;;4981224;28;20478;-84
2021/06/23 12:38:43;;;;;;;3.05;2.75;;;;;;;;;;4981036;28;20046;-85
2021/06/23 12:41:10;;;;;;;3.60;2.97;;;;;;;;;;4980573;28;20054;-83
2021/06/23 12:43:36;;;;;;;3.80;3.30;;;;;;;;;;4976892;28;20051;-82
2021/06/23 12:46:03;;;;;;;3.95;3.35;;;;;;;;;;4993732;28;20056;-81
2021/06/23 12:48:30;;;;;;;3.72;3.20;;;;;;;;;;4999935;28;20046;-83
2021/06/23 12:50:58;;;;;;;3.80;2.85;;;;;;;;;;5000220;28;20101;-83
2021/06/23 12:53:25;;;;;;;4.20;2.92;;;;;;;;;;4994442;28;20497;-79
2021/06/23 12:55:51;;;;;;;4.88;3.45;;;;;;;;;;4977610;28;20051;-82
2021/06/23 12:58:18;;;;;;;4.13;2.97;;;;;;;;;;4979086;28;20061;-81
2021/06/23 13:00:45;;;;;;;3.90;2.83;;;;;;;;;;4997390;28;20043;-81
2021/06/23 13:03:11;;;;;;;4.40;3.30;;;;;;;;;;4979694;28;20129;-83
2021/06/23 13:05:38;;;;;;;4.30;3.22;;;;;;;;;;4975997;28;20046;-81
2021/06/23 13:08:07;;;;;;;3.83;3.10;;;;;;;;;;4979882;28;20467;-82
2021/06/23 13:10:34;;;;;;;5.68;3.50;;;;;;;;;;4982162;28;20062;-81
2021/06/23 13:13:00;;;;;;;4.47;3.40;;;;;;;;;;4996594;28;20121;-82
2021/06/23 13:15:28;;;;;;;4.45;3.30;;;;;;;;;;4992425;28;20053;-82
2021/06/23 13:17:54;;;;;;;4.70;3.55;;;;;;;;;;4998798;28;20105;-81
2021/06/23 13:20:24;;;;;;;3.60;3.10;;;;;;;;;;4997675;28;20043;-82
2021/06/23 13:22:51;;;;;;;4.60;3.58;;;;;;;;;;4992831;28;20042;-82
2021/06/23 13:25:19;;;;;;;5.32;3.28;;;;;;;;;;5002480;28;20038;-82
2021/06/23 13:27:46;;;;;;;4.97;3.30;;;;;;;;;;4997265;28;20048;-83
2021/06/23 13:30:13;;;;;;;4.60;3.15;;;;;;;;;;4990810;28;20073;-82
2021/06/23 13:32:40;;;;;;;3.95;3.38;;;;;;;;;;4999554;28;20053;-80
2021/06/23 13:35:08;;;;;;;4.25;3.05;;;;;;;;;;5003417;28;20054;-82
2021/06/23 13:37:34;;;;;;;24.10;5.65;;;;;;;;;;4995173;28;20053;-81
2021/06/23 13:40:01;;;;;;;11.70;4.80;;;;;;;;;;4985834;28;20051;-80
2021/06/23 13:42:30;;;;;;;7.00;3.80;;;;;;;;;;4995465;28;20057;-81
2021/06/23 13:44:56;;;;;;;4.80;2.95;;;;;;;;;;5003931;28;20426;-82
2021/06/23 13:47:23;;;;;;;3.78;2.40;;;;;;;;;;4989782;28;20078;-82
2021/06/23 13:49:49;;;;;;;3.42;2.65;;;;;;;;;;4986693;28;20510;-83
2021/06/23 13:52:16;;;;;;;4.00;2.72;;;;;;;;;;4993029;28;20060;-82
2021/06/23 13:54:43;;;;;;;3.13;2.47;;;;;;;;;;5004879;28;20062;-84
2021/06/23 13:57:10;;;;;;;4.18;2.85;;;;;;;;;;5005191;28;20046;-84
2021/06/23 13:59:38;;;;;;;3.05;2.60;;;;;;;;;;4995448;28;20106;-80
2021/06/23 14:02:05;;;;;;;3.85;2.20;;;;;;;;;;4999472;28;20056;-82
2021/06/23 14:04:31;;;;;;;3.08;2.13;;;;;;;;;;4998335;28;20039;-84
2021/06/23 14:06:58;;;;;;;3.88;2.75;;;;;;;;;;5001958;28;20536;-83
2021/06/23 14:09:24;;;;;;;2.72;2.08;;;;;;;;;;5002711;28;20034;-83
2021/06/23 14:11:51;;;;;;;2.53;2.17;;;;;;;;;;4998330;28;20055;-82
2021/06/23 14:14:17;;;;;;;3.97;2.33;;;;;;;;;;4993611;28;20047;-84
2021/06/23 14:16:45;;;;;;;3.28;2.10;;;;;;;;;;4993212;28;20054;-83
2021/06/23 14:19:12;;;;;;;2.50;2.17;;;;;;;;;;4998856;28;20070;-85
2021/06/23 14:21:38;;;;;;;3.55;2.15;;;;;;;;;;4997021;28;20046;-84
2021/06/23 14:24:06;;;;;;;4.00;2.22;;;;;;;;;;4999220;28;20046;-84
2021/06/23 14:26:32;;;;;;;4.03;2.03;;;;;;;;;;5003306;28;20056;-84
2021/06/23 14:28:59;;;;;;;3.20;2.40;;;;;;;;;;4996212;28;20077;-82
2021/06/23 14:31:25;;;;;;;3.05;2.33;;;;;;;;;;4999400;28;20384;-82
2021/06/23 14:33:53;;;;;;;2.67;2.30;;;;;;;;;;4991034;28;20060;-81
2021/06/23 14:36:20;;;;;;;5.72;2.13;;;;;;;;;;5001742;28;20056;-85
2021/06/23 14:38:47;;;;;;;2.80;2.00;;;;;;;;;;4999717;28;20050;-82
2021/06/23 14:41:13;;;;;;;3.22;2.22;;;;;;;;;;4995365;28;20054;-82
2021/06/23 14:43:40;;;;;;;3.13;2.28;;;;;;;;;;5001279;28;20045;-81
2021/06/23 14:46:07;;;;;;;3.33;2.40;;;;;;;;;;5000152;28;20125;-82
2021/06/23 14:48:34;;;;;;;3.20;2.13;;;;;;;;;;4993661;28;20064;-82
2021/06/23 14:51:03;;;;;;;5.47;2.05;;;;;;;;;;4999692;28;20049;-84
2021/06/23 14:53:29;;;;;;;4.25;2.55;;;;;;;;;;5005361;28;20058;-81
2021/06/23 14:55:56;;;;;;;2.33;2.10;;;;;;;;;;5002389;28;20047;-81
2021/06/23 14:58:22;;;;;;;3.47;2.28;;;;;;;;;;5003037;28;20598;-84